sensor_id;sensor_type;location;lat;lon;timestamp;pressure;altitude;pressure_sealevel;temperature;humidity
78909;BME280;68298;37.368;127.108;2023-05-07T00:02:08;100278.22;;;17.40;47.74
78909;BME280;68298;37.368;127.108;2023-05-07T00:04:38;100280.84;;;17.40;47.35
78909;BME280;68298;37.368;127.108;2023-05-07T00:07:09;100288.69;;;17.40;46.76
78909;BME280;68298;37.368;127.108;2023-05-07T00:09:40;100288.69;;;17.40;47.66
78909;BME280;68298;37.368;127.108;2023-05-07T00:12:10;100287.00;;;17.39;47.29
78909;BME280;68298;37.368;127.108;2023-05-07T00:14:42;100289.59;;;17.39;47.83
78909;BME280;68298;37.368;127.108;2023-05-07T00:17:12;100287.84;;;17.39;47.34
78909;BME280;68298;37.368;127.108;2023-05-07T00:19:42;100294.84;;;17.39;46.92
78909;BME280;68298;37.368;127.108;2023-05-07T00:22:13;100298.31;;;17.39;47.04
78909;BME280;68298;37.368;127.108;2023-05-07T00:24:43;100300.06;;;17.39;47.54
78909;BME280;68298;37.368;127.108;2023-05-07T00:27:14;100283.53;;;17.38;47.03
78909;BME280;68298;37.368;127.108;2023-05-07T00:29:44;100290.56;;;17.38;47.83
78909;BME280;68298;37.368;127.108;2023-05-07T00:32:15;100290.56;;;17.38;46.97
78909;BME280;68298;37.368;127.108;2023-05-07T00:34:45;100302.81;;;17.37;47.17
78909;BME280;68298;37.368;127.108;2023-05-07T00:37:16;100301.88;;;17.38;48.13
78909;BME280;68298;37.368;127.108;2023-05-07T00:39:46;100304.59;;;17.37;47.99
78909;BME280;68298;37.368;127.108;2023-05-07T00:42:16;100299.38;;;17.37;48.32
78909;BME280;68298;37.368;127.108;2023-05-07T00:44:47;100290.56;;;17.38;47.69
78909;BME280;68298;37.368;127.108;2023-05-07T00:47:18;100294.13;;;17.37;48.02
78909;BME280;68298;37.368;127.108;2023-05-07T00:49:49;100298.53;;;17.36;47.70
78909;BME280;68298;37.368;127.108;2023-05-07T00:52:22;100287.22;;;17.36;47.82
78909;BME280;68298;37.368;127.108;2023-05-07T00:54:55;100284.72;;;17.34;48.16
78909;BME280;68298;37.368;127.108;2023-05-07T00:57:26;100292.34;;;17.37;47.43
78909;BME280;68298;37.368;127.108;2023-05-07T00:59:56;100274.25;;;17.34;48.30
78909;BME280;68298;37.368;127.108;2023-05-07T01:02:27;100281.16;;;17.35;47.65
78909;BME280;68298;37.368;127.108;2023-05-07T01:04:57;100278.41;;;17.37;47.69
78909;BME280;68298;37.368;127.108;2023-05-07T01:07:29;100271.63;;;17.34;47.95
78909;BME280;68298;37.368;127.108;2023-05-07T01:10:00;100288.19;;;17.35;47.80
78909;BME280;68298;37.368;127.108;2023-05-07T01:12:31;100301.28;;;17.35;47.59
78909;BME280;68298;37.368;127.108;2023-05-07T01:15:03;100303.06;;;17.34;47.65
78909;BME280;68298;37.368;127.108;2023-05-07T01:17:35;100304.81;;;17.34;47.45
78909;BME280;68298;37.368;127.108;2023-05-07T01:20:10;100301.28;;;17.35;48.30
78909;BME280;68298;37.368;127.108;2023-05-07T01:22:44;100297.81;;;17.34;47.74
78909;BME280;68298;37.368;127.108;2023-05-07T01:25:15;100289.97;;;17.34;48.22
78909;BME280;68298;37.368;127.108;2023-05-07T01:27:50;100298.75;;;17.33;47.66
78909;BME280;68298;37.368;127.108;2023-05-07T01:30:24;100300.44;;;17.34;48.01
78909;BME280;68298;37.368;127.108;2023-05-07T01:33:06;100307.44;;;17.34;48.33
78909;BME280;68298;37.368;127.108;2023-05-07T01:35:43;100307.44;;;17.34;48.73
78909;BME280;68298;37.368;127.108;2023-05-07T01:38:15;100291.72;;;17.34;48.37
78909;BME280;68298;37.368;127.108;2023-05-07T01:40:46;100281.25;;;17.34;48.76
78909;BME280;68298;37.368;127.108;2023-05-07T01:43:17;100290.03;;;17.33;48.79
78909;BME280;68298;37.368;127.108;2023-05-07T01:45:49;100293.50;;;17.33;48.13
78909;BME280;68298;37.368;127.108;2023-05-07T01:48:20;100296.94;;;17.34;48.12
78909;BME280;68298;37.368;127.108;2023-05-07T01:50:50;100290.88;;;17.33;48.75
78909;BME280;68298;37.368;127.108;2023-05-07T01:53:21;100280.41;;;17.33;48.47
78909;BME280;68298;37.368;127.108;2023-05-07T01:55:52;100283.03;;;17.33;47.46
78909;BME280;68298;37.368;127.108;2023-05-07T01:58:24;100269.94;;;17.33;48.49
78909;BME280;68298;37.368;127.108;2023-05-07T02:00:55;100272.56;;;17.33;47.66
78909;BME280;68298;37.368;127.108;2023-05-07T02:03:25;100283.03;;;17.33;47.96
78909;BME280;68298;37.368;127.108;2023-05-07T02:06:05;100283.84;;;17.34;48.31
78909;BME280;68298;37.368;127.108;2023-05-07T02:08:37;100283.03;;;17.33;48.77
78909;BME280;68298;37.368;127.108;2023-05-07T02:11:08;100283.84;;;17.34;47.65
78909;BME280;68298;37.368;127.108;2023-05-07T02:13:39;100280.41;;;17.33;48.27
78909;BME280;68298;37.368;127.108;2023-05-07T02:16:10;100277.78;;;17.33;48.50
78909;BME280;68298;37.368;127.108;2023-05-07T02:18:41;100281.25;;;17.34;47.63
78909;BME280;68298;37.368;127.108;2023-05-07T02:21:11;100285.56;;;17.35;47.68
78909;BME280;68298;37.368;127.108;2023-05-07T02:23:42;100279.50;;;17.34;48.16
78909;BME280;68298;37.368;127.108;2023-05-07T02:26:16;100269.94;;;17.33;47.87
78909;BME280;68298;37.368;127.108;2023-05-07T02:28:46;100262.00;;;17.35;48.04
78909;BME280;68298;37.368;127.108;2023-05-07T02:31:18;100270.75;;;17.34;48.41
78909;BME280;68298;37.368;127.108;2023-05-07T02:33:48;100276.00;;;17.34;48.47
78909;BME280;68298;37.368;127.108;2023-05-07T02:36:19;100276.00;;;17.34;47.80
78909;BME280;68298;37.368;127.108;2023-05-07T02:38:56;100265.53;;;17.34;48.60
78909;BME280;68298;37.368;127.108;2023-05-07T02:41:28;100258.53;;;17.34;48.24
78909;BME280;68298;37.368;127.108;2023-05-07T02:43:59;100246.28;;;17.35;48.70
78909;BME280;68298;37.368;127.108;2023-05-07T02:46:31;100245.44;;;17.34;48.32
78909;BME280;68298;37.368;127.108;2023-05-07T02:49:06;100251.53;;;17.35;47.79
78909;BME280;68298;37.368;127.108;2023-05-07T02:51:37;100267.09;;;17.36;48.82
78909;BME280;68298;37.368;127.108;2023-05-07T02:54:12;100271.63;;;17.34;48.03
78909;BME280;68298;37.368;127.108;2023-05-07T02:56:43;100280.19;;;17.36;47.67
78909;BME280;68298;37.368;127.108;2023-05-07T02:59:14;100275.91;;;17.35;48.09
78909;BME280;68298;37.368;127.108;2023-05-07T03:01:44;100268.06;;;17.35;49.03
78909;BME280;68298;37.368;127.108;2023-05-07T03:04:15;100261.03;;;17.36;48.20
78909;BME280;68298;37.368;127.108;2023-05-07T03:06:47;100256.63;;;17.36;48.36
78909;BME280;68298;37.368;127.108;2023-05-07T03:09:18;100249.63;;;17.37;48.41
78909;BME280;68298;37.368;127.108;2023-05-07T03:11:49;100232.25;;;17.36;48.36
78909;BME280;68298;37.368;127.108;2023-05-07T03:14:20;100225.22;;;17.36;48.61
78909;BME280;68298;37.368;127.108;2023-05-07T03:16:50;100220.81;;;17.37;48.21
78909;BME280;68298;37.368;127.108;2023-05-07T03:19:21;100223.44;;;17.37;48.47
78909;BME280;68298;37.368;127.108;2023-05-07T03:21:52;100234.84;;;17.36;47.94
78909;BME280;68298;37.368;127.108;2023-05-07T03:24:22;100238.44;;;17.35;48.16
78909;BME280;68298;37.368;127.108;2023-05-07T03:26:53;100260.09;;;17.37;48.07
78909;BME280;68298;37.368;127.108;2023-05-07T03:29:23;100256.63;;;17.36;48.36
78909;BME280;68298;37.368;127.108;2023-05-07T03:31:54;100260.91;;;17.37;48.45
78909;BME280;68298;37.368;127.108;2023-05-07T03:34:25;100258.31;;;17.37;48.43
78909;BME280;68298;37.368;127.108;2023-05-07T03:36:55;100246.03;;;17.38;47.95
78909;BME280;68298;37.368;127.108;2023-05-07T03:39:26;100241.75;;;17.37;48.89
78909;BME280;68298;37.368;127.108;2023-05-07T03:41:57;100226.03;;;17.37;47.80
78909;BME280;68298;37.368;127.108;2023-05-07T03:44:29;100222.59;;;17.36;48.16
78909;BME280;68298;37.368;127.108;2023-05-07T03:47:00;100235.69;;;17.36;48.12
78909;BME280;68298;37.368;127.108;2023-05-07T03:49:32;100244.38;;;17.37;47.91
78909;BME280;68298;37.368;127.108;2023-05-07T03:52:02;100257.47;;;17.37;48.53
78909;BME280;68298;37.368;127.108;2023-05-07T03:54:33;100263.53;;;17.37;48.57
78909;BME280;68298;37.368;127.108;2023-05-07T03:57:04;100259.97;;;17.38;48.53
78909;BME280;68298;37.368;127.108;2023-05-07T03:59:36;100250.44;;;17.37;48.32
78909;BME280;68298;37.368;127.108;2023-05-07T04:02:08;100238.19;;;17.38;48.43
78909;BME280;68298;37.368;127.108;2023-05-07T04:04:39;100221.66;;;17.37;47.42
78909;BME280;68298;37.368;127.108;2023-05-07T04:07:09;100212.00;;;17.38;48.25
78909;BME280;68298;37.368;127.108;2023-05-07T04:09:43;100219.03;;;17.37;48.07
78909;BME280;68298;37.368;127.108;2023-05-07T04:12:15;100231.16;;;17.38;47.82
78909;BME280;68298;37.368;127.108;2023-05-07T04:14:46;100252.13;;;17.38;47.73
78909;BME280;68298;37.368;127.108;2023-05-07T04:17:16;100260.81;;;17.39;47.98
78909;BME280;68298;37.368;127.108;2023-05-07T04:19:47;100258.19;;;17.39;47.93
78909;BME280;68298;37.368;127.108;2023-05-07T04:22:18;100259.97;;;17.38;48.37
78909;BME280;68298;37.368;127.108;2023-05-07T04:24:49;100263.41;;;17.39;48.31
78909;BME280;68298;37.368;127.108;2023-05-07T04:27:20;100266.03;;;17.39;47.93
78909;BME280;68298;37.368;127.108;2023-05-07T04:29:51;100261.66;;;17.39;47.71
78909;BME280;68298;37.368;127.108;2023-05-07T04:32:21;100241.56;;;17.40;47.83
78909;BME280;68298;37.368;127.108;2023-05-07T04:34:53;100244.16;;;17.40;47.55
78909;BME280;68298;37.368;127.108;2023-05-07T04:37:25;100241.56;;;17.40;47.95
78909;BME280;68298;37.368;127.108;2023-05-07T04:39:57;100254.66;;;17.40;48.10
78909;BME280;68298;37.368;127.108;2023-05-07T04:42:27;100261.56;;;17.41;47.46
78909;BME280;68298;37.368;127.108;2023-05-07T04:45:00;100256.31;;;17.41;48.14
78909;BME280;68298;37.368;127.108;2023-05-07T04:47:34;100265.94;;;17.40;47.72
78909;BME280;68298;37.368;127.108;2023-05-07T04:50:06;100250.25;;;17.40;48.08
78909;BME280;68298;37.368;127.108;2023-05-07T04:52:38;100237.16;;;17.40;47.55
78909;BME280;68298;37.368;127.108;2023-05-07T04:55:10;100236.19;;;17.41;47.99
78909;BME280;68298;37.368;127.108;2023-05-07T04:57:41;100244.88;;;17.42;48.06
78909;BME280;68298;37.368;127.108;2023-05-07T05:00:14;100254.53;;;17.41;47.67
78909;BME280;68298;37.368;127.108;2023-05-07T05:02:45;100245.00;;;17.40;48.03
78909;BME280;68298;37.368;127.108;2023-05-07T05:05:20;100230.97;;;17.41;47.02
78909;BME280;68298;37.368;127.108;2023-05-07T05:07:53;100233.56;;;17.41;46.52
78909;BME280;68298;37.368;127.108;2023-05-07T05:10:25;100223.94;;;17.42;46.98
78909;BME280;68298;37.368;127.108;2023-05-07T05:12:56;100224.78;;;17.42;47.44
78909;BME280;68298;37.368;127.108;2023-05-07T05:15:27;100222.16;;;17.42;46.86
78909;BME280;68298;37.368;127.108;2023-05-07T05:18:02;100218.69;;;17.42;47.29
78909;BME280;68298;37.368;127.108;2023-05-07T05:20:33;100215.13;;;17.43;47.10
78909;BME280;68298;37.368;127.108;2023-05-07T05:23:04;100218.56;;;17.43;47.50
78909;BME280;68298;37.368;127.108;2023-05-07T05:25:35;100215.13;;;17.43;47.55
78909;BME280;68298;37.368;127.108;2023-05-07T05:28:08;100196.78;;;17.43;47.01
78909;BME280;68298;37.368;127.108;2023-05-07T05:30:39;100188.94;;;17.43;46.73
78909;BME280;68298;37.368;127.108;2023-05-07T05:33:09;100196.78;;;17.43;47.30
78909;BME280;68298;37.368;127.108;2023-05-07T05:35:41;100185.50;;;17.42;47.32
78909;BME280;68298;37.368;127.108;2023-05-07T05:38:13;100180.16;;;17.44;47.58
78909;BME280;68298;37.368;127.108;2023-05-07T05:40:44;100170.53;;;17.44;46.93
78909;BME280;68298;37.368;127.108;2023-05-07T05:43:15;100182.78;;;17.44;46.89
78909;BME280;68298;37.368;127.108;2023-05-07T05:45:46;100189.78;;;17.43;47.40
78909;BME280;68298;37.368;127.108;2023-05-07T05:48:17;100193.25;;;17.44;47.15
78909;BME280;68298;37.368;127.108;2023-05-07T05:50:48;100195.00;;;17.43;46.72
78909;BME280;68298;37.368;127.108;2023-05-07T05:53:19;100198.50;;;17.44;47.02
78909;BME280;68298;37.368;127.108;2023-05-07T05:55:50;100195.88;;;17.44;46.88
78909;BME280;68298;37.368;127.108;2023-05-07T05:58:21;100196.72;;;17.44;47.49
78909;BME280;68298;37.368;127.108;2023-05-07T06:00:57;100196.72;;;17.44;46.91
78909;BME280;68298;37.368;127.108;2023-05-07T06:03:28;100196.72;;;17.44;46.78
78909;BME280;68298;37.368;127.108;2023-05-07T06:06:01;100195.88;;;17.44;47.73
78909;BME280;68298;37.368;127.108;2023-05-07T06:08:32;100180.16;;;17.44;47.82
78909;BME280;68298;37.368;127.108;2023-05-07T06:11:03;100193.25;;;17.44;47.16
78909;BME280;68298;37.368;127.108;2023-05-07T06:13:37;100180.16;;;17.44;46.59
78909;BME280;68298;37.368;127.108;2023-05-07T06:16:08;100185.41;;;17.44;47.11
78909;BME280;68298;37.368;127.108;2023-05-07T06:18:38;100203.59;;;17.46;47.23
78909;BME280;68298;37.368;127.108;2023-05-07T06:21:10;100200.16;;;17.45;47.51
78909;BME280;68298;37.368;127.108;2023-05-07T06:23:40;100197.53;;;17.45;47.52
78909;BME280;68298;37.368;127.108;2023-05-07T06:26:11;100187.91;;;17.46;47.57
78909;BME280;68298;37.368;127.108;2023-05-07T06:28:46;100187.06;;;17.45;46.79
78909;BME280;68298;37.368;127.108;2023-05-07T06:31:18;100193.97;;;17.46;47.01
78909;BME280;68298;37.368;127.108;2023-05-07T06:33:55;100187.91;;;17.46;47.68
78909;BME280;68298;37.368;127.108;2023-05-07T06:36:32;100177.31;;;17.47;47.59
78909;BME280;68298;37.368;127.108;2023-05-07T06:39:10;100174.69;;;17.47;47.19
78909;BME280;68298;37.368;127.108;2023-05-07T06:41:40;100169.44;;;17.47;47.19
78909;BME280;68298;37.368;127.108;2023-05-07T06:44:21;100172.06;;;17.47;46.69
78909;BME280;68298;37.368;127.108;2023-05-07T06:47:13;100168.50;;;17.48;46.52
78909;BME280;68298;37.368;127.108;2023-05-07T06:49:47;100178.03;;;17.49;46.50
78909;BME280;68298;37.368;127.108;2023-05-07T06:52:21;100172.81;;;17.49;47.55
78909;BME280;68298;37.368;127.108;2023-05-07T06:54:52;100158.00;;;17.48;46.60
78909;BME280;68298;37.368;127.108;2023-05-07T06:57:25;100164.81;;;17.51;47.13
78909;BME280;68298;37.368;127.108;2023-05-07T06:59:56;100156.13;;;17.50;46.50
78909;BME280;68298;37.368;127.108;2023-05-07T07:02:26;100161.38;;;17.50;47.21
78909;BME280;68298;37.368;127.108;2023-05-07T07:04:57;100154.34;;;17.51;47.03
78909;BME280;68298;37.368;127.108;2023-05-07T07:07:28;100156.13;;;17.50;46.36
78909;BME280;68298;37.368;127.108;2023-05-07T07:09:59;100160.41;;;17.51;46.66
78909;BME280;68298;37.368;127.108;2023-05-07T07:12:29;100155.19;;;17.51;46.96
78909;BME280;68298;37.368;127.108;2023-05-07T07:15:00;100156.84;;;17.52;46.68
78909;BME280;68298;37.368;127.108;2023-05-07T07:17:32;100155.19;;;17.51;46.11
78909;BME280;68298;37.368;127.108;2023-05-07T07:20:03;100155.19;;;17.51;45.90
78909;BME280;68298;37.368;127.108;2023-05-07T07:22:33;100154.34;;;17.51;46.19
78909;BME280;68298;37.368;127.108;2023-05-07T07:25:04;100149.00;;;17.52;46.18
78909;BME280;68298;37.368;127.108;2023-05-07T07:27:36;100156.00;;;17.52;46.31
78909;BME280;68298;37.368;127.108;2023-05-07T07:30:08;100148.03;;;17.53;45.83
78909;BME280;68298;37.368;127.108;2023-05-07T07:32:41;100148.03;;;17.53;46.59
78909;BME280;68298;37.368;127.108;2023-05-07T07:35:12;100144.50;;;17.54;45.78
78909;BME280;68298;37.368;127.108;2023-05-07T07:37:44;100146.38;;;17.52;46.06
78909;BME280;68298;37.368;127.108;2023-05-07T07:40:15;100145.41;;;17.53;45.94
78909;BME280;68298;37.368;127.108;2023-05-07T07:42:45;100141.97;;;17.53;45.81
78909;BME280;68298;37.368;127.108;2023-05-07T07:45:16;100152.34;;;17.54;45.94
78909;BME280;68298;37.368;127.108;2023-05-07T07:47:48;100137.56;;;17.53;46.22
78909;BME280;68298;37.368;127.108;2023-05-07T07:50:19;100144.50;;;17.54;46.26
78909;BME280;68298;37.368;127.108;2023-05-07T07:53:09;100147.00;;;17.56;45.77
78909;BME280;68298;37.368;127.108;2023-05-07T07:55:40;100151.41;;;17.55;46.85
78909;BME280;68298;37.368;127.108;2023-05-07T07:58:14;100150.44;;;17.56;46.12
78909;BME280;68298;37.368;127.108;2023-05-07T08:00:44;100147.81;;;17.56;46.67
78909;BME280;68298;37.368;127.108;2023-05-07T08:03:15;100147.00;;;17.56;45.62
78909;BME280;68298;37.368;127.108;2023-05-07T08:05:50;100146.03;;;17.57;46.20
78909;BME280;68298;37.368;127.108;2023-05-07T08:08:22;100148.66;;;17.57;46.41
78909;BME280;68298;37.368;127.108;2023-05-07T08:10:53;100141.63;;;17.57;45.70
78909;BME280;68298;37.368;127.108;2023-05-07T08:13:31;100131.97;;;17.58;46.48
78909;BME280;68298;37.368;127.108;2023-05-07T08:16:03;100139.00;;;17.57;45.91
78909;BME280;68298;37.368;127.108;2023-05-07T08:18:35;100146.88;;;17.57;46.59
78909;BME280;68298;37.368;127.108;2023-05-07T08:21:06;100150.31;;;17.58;46.08
78909;BME280;68298;37.368;127.108;2023-05-07T08:23:36;100145.06;;;17.58;46.25
78909;BME280;68298;37.368;127.108;2023-05-07T08:26:08;100140.69;;;17.58;46.32
78909;BME280;68298;37.368;127.108;2023-05-07T08:28:39;100143.31;;;17.58;46.17
78909;BME280;68298;37.368;127.108;2023-05-07T08:31:10;100140.69;;;17.58;46.79
78909;BME280;68298;37.368;127.108;2023-05-07T08:33:43;100142.38;;;17.59;46.49
78909;BME280;68298;37.368;127.108;2023-05-07T08:36:14;100145.81;;;17.60;45.84
78909;BME280;68298;37.368;127.108;2023-05-07T08:38:44;100139.75;;;17.59;46.68
78909;BME280;68298;37.368;127.108;2023-05-07T08:41:16;100137.13;;;17.59;46.60
78909;BME280;68298;37.368;127.108;2023-05-07T08:43:48;100139.75;;;17.59;46.47
78909;BME280;68298;37.368;127.108;2023-05-07T08:46:21;100137.97;;;17.60;45.36
78909;BME280;68298;37.368;127.108;2023-05-07T08:48:55;100137.97;;;17.60;45.73
78909;BME280;68298;37.368;127.108;2023-05-07T08:51:26;100143.19;;;17.60;46.40
78909;BME280;68298;37.368;127.108;2023-05-07T08:53:58;100141.41;;;17.60;46.38
78909;BME280;68298;37.368;127.108;2023-05-07T08:56:32;100133.56;;;17.60;46.38
78909;BME280;68298;37.368;127.108;2023-05-07T08:59:03;100136.19;;;17.60;45.59
78909;BME280;68298;37.368;127.108;2023-05-07T09:01:34;100135.22;;;17.61;45.88
78909;BME280;68298;37.368;127.108;2023-05-07T09:04:06;100127.38;;;17.61;45.68
78909;BME280;68298;37.368;127.108;2023-05-07T09:06:39;100132.59;;;17.61;46.26
78909;BME280;68298;37.368;127.108;2023-05-07T09:09:17;100126.53;;;17.61;46.48
78909;BME280;68298;37.368;127.108;2023-05-07T09:11:57;100122.13;;;17.61;46.03
78909;BME280;68298;37.368;127.108;2023-05-07T09:14:34;100124.75;;;17.61;45.86
78909;BME280;68298;37.368;127.108;2023-05-07T09:17:05;100126.41;;;17.62;45.92
78909;BME280;68298;37.368;127.108;2023-05-07T09:19:36;100125.56;;;17.62;46.26
78909;BME280;68298;37.368;127.108;2023-05-07T09:22:08;100122.97;;;17.62;45.65
78909;BME280;68298;37.368;127.108;2023-05-07T09:24:50;100128.09;;;17.63;46.11
78909;BME280;68298;37.368;127.108;2023-05-07T09:27:25;100122.00;;;17.63;45.70
78909;BME280;68298;37.368;127.108;2023-05-07T09:29:57;100112.47;;;17.62;46.59
78909;BME280;68298;37.368;127.108;2023-05-07T09:32:27;100115.94;;;17.62;46.16
78909;BME280;68298;37.368;127.108;2023-05-07T09:35:00;100121.16;;;17.62;45.42
78909;BME280;68298;37.368;127.108;2023-05-07T09:37:31;100124.63;;;17.63;45.80
78909;BME280;68298;37.368;127.108;2023-05-07T09:40:02;100115.94;;;17.62;45.68
78909;BME280;68298;37.368;127.108;2023-05-07T09:42:33;100126.31;;;17.64;45.39
78909;BME280;68298;37.368;127.108;2023-05-07T09:45:06;100114.13;;;17.63;45.62
78909;BME280;68298;37.368;127.108;2023-05-07T09:47:39;100123.69;;;17.64;45.48
78909;BME280;68298;37.368;127.108;2023-05-07T09:50:15;100131.56;;;17.64;45.06
78909;BME280;68298;37.368;127.108;2023-05-07T09:52:46;100130.72;;;17.63;45.19
78909;BME280;68298;37.368;127.108;2023-05-07T09:55:18;100138.56;;;17.63;45.57
78909;BME280;68298;37.368;127.108;2023-05-07T09:57:53;100132.38;;;17.64;46.02
78909;BME280;68298;37.368;127.108;2023-05-07T10:00:28;100134.16;;;17.64;45.75
78909;BME280;68298;37.368;127.108;2023-05-07T10:03:08;100142.88;;;17.64;46.14
78909;BME280;68298;37.368;127.108;2023-05-07T10:05:47;100139.41;;;17.64;45.80
78909;BME280;68298;37.368;127.108;2023-05-07T10:08:20;100145.47;;;17.64;45.67
78909;BME280;68298;37.368;127.108;2023-05-07T10:10:54;100145.47;;;17.64;46.07
78909;BME280;68298;37.368;127.108;2023-05-07T10:13:26;100151.69;;;17.63;45.84
78909;BME280;68298;37.368;127.108;2023-05-07T10:16:00;100149.88;;;17.64;45.27
78909;BME280;68298;37.368;127.108;2023-05-07T10:18:36;100152.50;;;17.64;45.63
78909;BME280;68298;37.368;127.108;2023-05-07T10:21:19;100149.88;;;17.64;45.50
78909;BME280;68298;37.368;127.108;2023-05-07T10:24:15;100160.38;;;17.64;45.37
78909;BME280;68298;37.368;127.108;2023-05-07T10:26:50;100156.91;;;17.63;45.60
78909;BME280;68298;37.368;127.108;2023-05-07T10:34:56;100169.06;;;17.64;45.11
78909;BME280;68298;37.368;127.108;2023-05-07T10:37:30;100166.44;;;17.64;45.08
78909;BME280;68298;37.368;127.108;2023-05-07T10:40:01;100170.00;;;17.63;45.62
78909;BME280;68298;37.368;127.108;2023-05-07T10:42:33;100175.25;;;17.63;44.90
78909;BME280;68298;37.368;127.108;2023-05-07T10:45:16;100172.63;;;17.63;44.50
78909;BME280;68298;37.368;127.108;2023-05-07T10:48:10;100178.72;;;17.64;44.49
78909;BME280;68298;37.368;127.108;2023-05-07T10:51:20;100178.72;;;17.64;44.77
78909;BME280;68298;37.368;127.108;2023-05-07T10:56:53;100176.09;;;17.64;44.71
78909;BME280;68298;37.368;127.108;2023-05-07T10:59:31;100189.19;;;17.64;44.55
78909;BME280;68298;37.368;127.108;2023-05-07T11:02:14;100197.97;;;17.63;44.34
78909;BME280;68298;37.368;127.108;2023-05-07T11:05:23;100202.28;;;17.64;44.54
78909;BME280;68298;37.368;127.108;2023-05-07T11:08:04;100201.44;;;17.63;44.87
78909;BME280;68298;37.368;127.108;2023-05-07T11:10:50;100201.44;;;17.63;44.65
78909;BME280;68298;37.368;127.108;2023-05-07T11:13:47;100201.44;;;17.63;43.96
78909;BME280;68298;37.368;127.108;2023-05-07T11:16:38;100213.59;;;17.64;44.28
78909;BME280;68298;37.368;127.108;2023-05-07T11:19:49;100219.88;;;17.62;43.93
78909;BME280;68298;37.368;127.108;2023-05-07T11:22:37;100224.16;;;17.63;44.55
78909;BME280;68298;37.368;127.108;2023-05-07T11:25:35;100232.03;;;17.63;44.36
78909;BME280;68298;37.368;127.108;2023-05-07T11:28:16;100242.50;;;17.63;44.29
78909;BME280;68298;37.368;127.108;2023-05-07T11:30:56;100247.72;;;17.63;44.34
78909;BME280;68298;37.368;127.108;2023-05-07T11:33:27;100240.84;;;17.62;44.08
78909;BME280;68298;37.368;127.108;2023-05-07T11:36:03;100254.75;;;17.62;44.35
78909;BME280;68298;37.368;127.108;2023-05-07T11:38:38;100249.53;;;17.62;43.76
78909;BME280;68298;37.368;127.108;2023-05-07T11:41:09;100249.53;;;17.62;44.14
78909;BME280;68298;37.368;127.108;2023-05-07T11:43:54;100251.31;;;17.62;43.45
78909;BME280;68298;37.368;127.108;2023-05-07T11:46:27;100242.63;;;17.61;44.21
78909;BME280;68298;37.368;127.108;2023-05-07T11:48:58;100246.06;;;17.62;44.27
78909;BME280;68298;37.368;127.108;2023-05-07T11:51:30;100247.84;;;17.61;44.59
78909;BME280;68298;37.368;127.108;2023-05-07T11:54:04;100255.72;;;17.61;44.05
78909;BME280;68298;37.368;127.108;2023-05-07T11:56:38;100254.88;;;17.61;43.81
78909;BME280;68298;37.368;127.108;2023-05-07T11:59:08;100255.72;;;17.61;44.25
78909;BME280;68298;37.368;127.108;2023-05-07T12:01:39;100254.03;;;17.60;43.72
78909;BME280;68298;37.368;127.108;2023-05-07T12:04:10;100253.22;;;17.60;43.59
78909;BME280;68298;37.368;127.108;2023-05-07T12:06:41;100252.25;;;17.61;44.03
78909;BME280;68298;37.368;127.108;2023-05-07T12:09:11;100254.03;;;17.60;43.40
78909;BME280;68298;37.368;127.108;2023-05-07T12:11:46;100255.84;;;17.60;44.02
78909;BME280;68298;37.368;127.108;2023-05-07T12:14:16;100260.25;;;17.59;44.15
78909;BME280;68298;37.368;127.108;2023-05-07T12:16:47;100273.34;;;17.59;43.95
78909;BME280;68298;37.368;127.108;2023-05-07T12:19:18;100277.75;;;17.59;43.92
78909;BME280;68298;37.368;127.108;2023-05-07T12:21:48;100282.97;;;17.59;44.14
78909;BME280;68298;37.368;127.108;2023-05-07T12:24:19;100290.84;;;17.59;43.28
78909;BME280;68298;37.368;127.108;2023-05-07T12:26:50;100303.09;;;17.58;44.30
78909;BME280;68298;37.368;127.108;2023-05-07T12:29:24;100297.00;;;17.58;43.15
78909;BME280;68298;37.368;127.108;2023-05-07T12:31:55;100306.66;;;17.57;43.01
78909;BME280;68298;37.368;127.108;2023-05-07T12:34:26;100311.88;;;17.57;43.79
78909;BME280;68298;37.368;127.108;2023-05-07T12:36:56;100315.44;;;17.56;43.96
78909;BME280;68298;37.368;127.108;2023-05-07T12:39:27;100328.56;;;17.56;44.04
78909;BME280;68298;37.368;127.108;2023-05-07T12:41:59;100338.06;;;17.57;43.58
78909;BME280;68298;37.368;127.108;2023-05-07T12:44:31;100341.66;;;17.56;43.17
78909;BME280;68298;37.368;127.108;2023-05-07T12:47:03;100344.25;;;17.56;43.65
78909;BME280;68298;37.368;127.108;2023-05-07T12:49:35;100338.19;;;17.56;43.53
78909;BME280;68298;37.368;127.108;2023-05-07T12:52:08;100347.84;;;17.55;43.87
78909;BME280;68298;37.368;127.108;2023-05-07T12:54:39;100351.28;;;17.56;43.26
78909;BME280;68298;37.368;127.108;2023-05-07T12:57:10;100355.69;;;17.55;43.26
78909;BME280;68298;37.368;127.108;2023-05-07T12:59:41;100355.69;;;17.55;43.09
78909;BME280;68298;37.368;127.108;2023-05-07T13:02:13;100364.50;;;17.54;43.45
78909;BME280;68298;37.368;127.108;2023-05-07T13:04:44;100367.97;;;17.55;43.59
78909;BME280;68298;37.368;127.108;2023-05-07T13:07:15;100370.56;;;17.55;43.50
78909;BME280;68298;37.368;127.108;2023-05-07T13:09:45;100363.66;;;17.54;43.37